Station Historical Data
Daily Summary for April 9, 2017 Units:  English    Metric   Both
« Previous Day
Next Day »
Daily Weekly Monthly Yearly Custom
  High: Low: Average:
Temperature: 78.2 °F 41.8 °F 61.1 °F
Dew Point: 43.1 °F 14.1 °F 27 °F
Humidity: 50% 16% 29%
Wind Speed: 2.0mph 0.0mph 0.1mph
Wind Gust: 7.0mph - -
Wind- - WNW
Pressure: 30.24 in 30.10 in -
Precipitation: 0.02 in    
Historical Graphs
 
 
Tabular Data for April 9, 2017
Time Temperature Dew Point Pressure Wind Wind Speed Wind Gust Humidity Rainfall Rate (Hourly) solar Conditions
00:00 49.0 °F 20.3 °F 30.12 in Calm     32% 0.00 in 0.0 W/m2 SCT
00:15 49.3 °F 20.7 °F 30.12 in Calm     32% 0.00 in 0.0 W/m2 SCT
00:30 48.2 °F 19.7 °F 30.12 in Calm     32% 0.00 in 0.0 W/m2 SCT
00:45 47.4 °F 19.0 °F 30.12 in Calm     32% 0.00 in 0.0 W/m2 SCT
01:00 47.0 °F 18.6 °F 30.12 in Calm     32% 0.00 in 0.0 W/m2 SCT
01:15 46.6 °F 18.3 °F 30.12 in Calm     32% 0.00 in 0.0 W/m2 SCT
01:30 46.4 °F 18.1 °F 30.12 in Calm     32% 0.00 in 0.0 W/m2 SCT
01:45 46.1 °F 17.8 °F 30.11 in Calm     32% 0.00 in 0.0 W/m2 SCT
02:00 45.6 °F 17.4 °F 30.11 in Calm     32% 0.00 in 0.0 W/m2 SCT
02:15 45.1 °F 16.9 °F 30.11 in Calm     32% 0.00 in 0.0 W/m2 SCT
02:30 44.7 °F 16.6 °F 30.11 in Calm     32% 0.00 in 0.0 W/m2 SCT
02:45 44.8 °F 16.7 °F 30.11 in Calm     32% 0.00 in 0.0 W/m2 SCT
03:00 45.6 °F 17.4 °F 30.11 in Calm     32% 0.00 in 0.0 W/m2 SCT
03:15 46.0 °F 17.7 °F 30.10 in Calm     32% 0.00 in 0.0 W/m2 SCT
03:30 46.1 °F 17.8 °F 30.11 in Calm     32% 0.00 in 0.0 W/m2 SCT
03:45 47.0 °F 18.6 °F 30.10 in Calm     32% 0.00 in 0.0 W/m2 SCT
04:00 47.3 °F 18.9 °F 30.11 in Calm     32% 0.00 in 0.0 W/m2 SCT
04:15 47.7 °F 19.2 °F 30.12 in Calm     32% 0.00 in 0.0 W/m2 SCT
04:30 47.9 °F 19.4 °F 30.12 in Calm     32% 0.00 in 0.0 W/m2 SCT
04:45 48.1 °F 19.6 °F 30.12 in Calm     32% 0.00 in 0.0 W/m2 SCT
05:00 48.3 °F 19.8 °F 30.12 in Calm     32% 0.00 in 0.0 W/m2 SCT
05:15 48.4 °F 19.9 °F 30.13 in Calm     32% 0.00 in 0.0 W/m2 SCT
05:30 48.6 °F 20.1 °F 30.13 in Calm     32% 0.00 in 0.0 W/m2 SCT
05:45 48.7 °F 20.1 °F 30.13 in Calm     32% 0.00 in 0.0 W/m2 SCT
06:00 48.8 °F 20.2 °F 30.14 in Calm     32% 0.00 in 0.0 W/m2 SCT
06:15 48.9 °F 20.3 °F 30.13 in Calm     32% 0.00 in 0.0 W/m2 SCT
06:30 48.9 °F 20.3 °F 30.15 in Calm     32% 0.00 in 0.0 W/m2 SCT
06:45 49.0 °F 20.4 °F 30.16 in Calm     32% 0.00 in 0.0 W/m2 SCT
07:00 49.0 °F 20.4 °F 30.15 in Calm     32% 0.00 in 0.0 W/m2 SCT
07:15 49.0 °F 20.4 °F 30.17 in Calm     32% 0.00 in 0.0 W/m2 SCT
07:30 49.0 °F 20.4 °F 30.17 in Calm     32% 0.00 in 0.0 W/m2 SCT
07:45 49.1 °F 20.4 °F 30.18 in Calm     32% 0.00 in 0.0 W/m2 SCT
08:00 41.8 °F 14.1 °F 30.18 in Calm     32% 0.00 in 0.0 W/m2 SCT
08:15 44.1 °F 16.1 °F 30.19 in Calm     32% 0.00 in 0.0 W/m2 SCT
08:30 46.4 °F 18.1 °F 30.20 in Calm     32% 0.00 in 0.0 W/m2 SCT
08:45 49.8 °F 21.1 °F 30.20 in Calm     32% 0.00 in 0.0 W/m2 SCT
09:00 51.5 °F 22.6 °F 30.21 in Calm     32% 0.00 in 0.0 W/m2 SCT
09:15 53.6 °F 24.4 °F 30.21 in Calm     32% 0.00 in 0.0 W/m2 SCT
09:30 56.0 °F 37.6 °F 30.22 in Calm   1.0 mph 50% 0.00 in W/m2 SCT
09:45 58.4 °F 37.7 °F 30.22 in Calm   1.0 mph 46% 0.00 in W/m2 SCT
10:00 61.6 °F 37.0 °F 30.23 in Calm   1.0 mph 40% 0.00 in W/m2 SCT
10:15 64.2 °F 38.7 °F 30.23 in Calm     39% 0.00 in W/m2 SCT
10:30 65.5 °F 36.4 °F 30.23 in Calm   1.0 mph 34% 0.00 in W/m2 SCT
10:45 66.9 °F 34.4 °F 30.23 in Calm   2.0 mph 30% 0.00 in W/m2 SCT
11:00 67.9 °F 32.7 °F 30.23 in Calm   3.0 mph 27% 0.00 in W/m2 SCT
11:15 69.2 °F 32.8 °F 30.23 in Calm   5.0 mph 26% 0.00 in W/m2 SCT
11:30 71.0 °F 36.3 °F 30.24 in Calm   1.0 mph 28% 0.00 in W/m2 SCT
11:45 72.4 °F 32.5 °F 30.23 in Calm   2.0 mph 23% 0.00 in W/m2 SCT
12:00 73.3 °F 32.1 °F 30.23 in Calm   5.0 mph 22% 0.00 in W/m2 SCT
12:15 74.7 °F 31.0 °F 30.23 in Calm   5.0 mph 20% 0.00 in W/m2 SCT
12:30 75.6 °F 27.7 °F 30.22 in Calm   2.0 mph 17% 0.00 in W/m2 SCT
12:45 75.5 °F 27.6 °F 30.22 in WSW 2.0 mph 3.0 mph 17% 0.00 in W/m2 SCT
13:00 75.9 °F 43.1 °F 30.21 in WNW 1.0 mph 3.0 mph 31% 0.00 in W/m2 SCT
13:15 76.2 °F 32.2 °F 30.21 in Calm   3.0 mph 20% 0.00 in W/m2 SCT
13:30 75.5 °F 30.3 °F 30.21 in NW 1.0 mph 5.0 mph 19% 0.00 in W/m2 SCT
13:45 76.7 °F 27.1 °F 30.20 in WNW 1.0 mph 3.0 mph 16% 0.00 in W/m2 SCT
14:00 77.2 °F 30.4 °F 30.19 in Calm   3.0 mph 18% 0.00 in W/m2 SCT
14:15 77.4 °F 30.5 °F 30.19 in Calm   5.0 mph 18% 0.00 in W/m2 SCT
14:30 78.2 °F 33.8 °F 30.19 in West 1.0 mph 3.0 mph 20% 0.00 in W/m2 SCT
14:45 77.8 °F 30.9 °F 30.18 in Calm   3.0 mph 18% 0.00 in W/m2 SCT
15:00 76.8 °F 30.1 °F 30.18 in Calm   3.0 mph 18% 0.00 in W/m2 SCT
15:15 77.0 °F 31.6 °F 30.17 in Calm   3.0 mph 19% 0.00 in W/m2 SCT
15:30 76.5 °F 28.4 °F 30.16 in WNW 1.0 mph 3.0 mph 17% 0.00 in W/m2 SCT
15:45 76.5 °F 32.4 °F 30.16 in NW 1.0 mph 3.0 mph 20% 0.00 in W/m2 SCT
16:00 76.4 °F 26.9 °F 30.16 in NW 1.0 mph 3.0 mph 16% 0.00 in W/m2 SCT
16:15 76.1 °F 28.1 °F 30.15 in Calm   5.0 mph 17% 0.00 in W/m2 SCT
16:30 75.9 °F 29.3 °F 30.15 in Calm   3.0 mph 18% 0.00 in W/m2 SCT
16:45 76.1 °F 26.6 °F 30.13 in WNW 1.0 mph 3.0 mph 16% 0.00 in W/m2 SCT
17:15 75.8 °F 26.4 °F 30.14 in Calm   3.0 mph 16% 0.00 in W/m2 SCT
17:30 75.7 °F 27.8 °F 30.14 in NW 1.0 mph 3.0 mph 17% 0.00 in W/m2 SCT
17:45 75.7 °F 29.1 °F 30.14 in Calm   2.0 mph 18% 0.00 in W/m2 SCT
18:00 75.1 °F 25.8 °F 30.13 in Calm   5.0 mph 16% 0.00 in W/m2 SCT
18:15 74.7 °F 25.5 °F 30.14 in Calm   5.0 mph 16% 0.00 in W/m2 SCT
18:30 74.4 °F 29.5 °F 30.13 in Calm   4.0 mph 19% 0.00 in W/m2 SCT
18:45 73.6 °F 28.8 °F 30.14 in Calm   7.0 mph 19% 0.02 in W/m2 SCT
19:00 72.9 °F 26.9 °F 30.13 in Calm   2.0 mph 18% 0.00 in W/m2 SCT
19:15 72.4 °F 39.2 °F 30.14 in Calm   2.0 mph 30% 0.00 in W/m2 SCT
19:30 71.4 °F 30.6 °F 30.14 in Calm   2.0 mph 22% 0.00 in W/m2 SCT
19:45 70.1 °F 32.6 °F 30.14 in Calm     25% 0.00 in W/m2 SCT
20:00 68.9 °F 32.6 °F 30.14 in Calm     26% 0.00 in W/m2 SCT
20:15 68.0 °F 31.8 °F 30.14 in Calm     26% 0.00 in W/m2 SCT
20:30 67.3 °F 33.0 °F 30.14 in Calm     28% 0.00 in W/m2 SCT
20:45 66.5 °F 31.5 °F 30.15 in Calm     27% 0.00 in W/m2 SCT
21:00 65.3 °F 34.7 °F 30.15 in Calm     32% 0.00 in W/m2 SCT
21:15 63.9 °F 33.5 °F 30.16 in Calm     32% 0.00 in W/m2 SCT
21:30 62.0 °F 32.6 °F 30.15 in Calm     33% 0.00 in W/m2 SCT
21:45 62.2 °F 36.3 °F 30.17 in Calm     38% 0.00 in W/m2 SCT
22:00 61.8 °F 33.8 °F 30.18 in Calm     35% 0.00 in W/m2 SCT
22:15 61.6 °F 33.7 °F 30.18 in Calm     35% 0.00 in W/m2 SCT
22:30 61.2 °F 33.3 °F 30.17 in Calm     35% 0.00 in W/m2 SCT
22:45 61.2 °F 34.0 °F 30.18 in Calm     36% 0.00 in W/m2 SCT
23:00 61.2 °F 34.0 °F 30.19 in Calm     36% 0.00 in W/m2 SCT
23:15 60.1 °F 37.5 °F 30.18 in Calm     43% 0.00 in W/m2 SCT
23:30 59.2 °F 37.3 °F 30.19 in Calm     44% 0.00 in W/m2 SCT
23:45 58.3 °F 38.7 °F 30.19 in Calm     48% 0.00 in W/m2 SCT
Piedmont Bend
Compliments of Weather Underground - 4 mb